Time;durP1;ratioP1;P1;durP2;ratioP2;P2;SDS_P1;SDS_P2;PMS_P1;PMS_P2;Temp;Humidity;BMP_temperature;BMP_pressure;BME280_temperature;BME280_humidity;BME280_pressure;Samples;Min_cycle;Max_cycle;Signal;HPM_P1;HPM_P2
2024/02/07 00:02:14;;;;;;;8.93;5.60;;;;;;;9.54;40.49;99278.81;5072044;28;20024;-67
2024/02/07 00:04:40;;;;;;;15.73;7.28;;;;;;;9.64;40.14;99279.63;5071698;28;20075;-67
2024/02/07 00:07:05;;;;;;;16.23;7.15;;;;;;;9.75;39.99;99291.25;5097075;28;20093;-67
2024/02/07 00:09:31;;;;;;;12.30;6.65;;;;;;;9.61;40.41;99294.25;5092406;28;20111;-67
2024/02/07 00:11:56;;;;;;;11.38;6.88;;;;;;;9.37;40.84;99290.03;5088118;28;20031;-66
2024/02/07 00:14:22;;;;;;;10.98;6.20;;;;;;;9.50;40.96;99291.81;5090296;28;20488;-67
2024/02/07 00:16:47;;;;;;;11.43;6.75;;;;;;;9.28;41.21;99295.63;5108532;28;20086;-67
2024/02/07 00:19:13;;;;;;;14.35;6.43;;;;;;;9.20;41.72;99299.25;5108483;28;20026;-67
2024/02/07 00:21:38;;;;;;;10.13;7.50;;;;;;;8.91;41.35;99304.34;5089913;28;20059;-67
2024/02/07 00:24:05;;;;;;;12.05;6.63;;;;;;;8.85;43.00;99312.06;5113210;28;20030;-66
2024/02/07 00:26:30;;;;;;;9.40;6.40;;;;;;;8.75;43.78;99297.59;5095079;28;20114;-67
2024/02/07 00:28:56;;;;;;;11.55;6.50;;;;;;;8.63;43.42;99295.47;5099379;28;20513;-67
2024/02/07 00:31:21;;;;;;;8.25;5.65;;;;;;;8.65;43.72;99302.38;5086003;28;20066;-67
2024/02/07 00:33:47;;;;;;;11.43;6.38;;;;;;;8.81;43.58;99299.94;5113316;28;20030;-67
2024/02/07 00:36:12;;;;;;;10.32;6.47;;;;;;;8.89;43.18;99289.09;5112398;28;20120;-66
2024/02/07 00:38:39;;;;;;;10.23;5.80;;;;;;;8.81;43.62;99285.16;5110472;28;20534;-67
2024/02/07 00:41:04;;;;;;;12.13;7.15;;;;;;;8.92;42.94;99285.63;5095260;28;20420;-67
2024/02/07 00:43:33;;;;;;;14.00;7.75;;;;;;;8.77;43.60;99284.97;5113127;28;20027;-67
2024/02/07 00:45:58;;;;;;;17.77;8.35;;;;;;;8.88;43.91;99281.88;5100557;28;20497;-67
2024/02/07 00:48:24;;;;;;;14.57;8.52;;;;;;;8.32;44.11;99276.84;5109097;28;20027;-67
2024/02/07 00:50:49;;;;;;;12.98;8.05;;;;;;;8.61;44.58;99278.25;5074786;28;20027;-67
2024/02/07 00:53:15;;;;;;;14.55;8.77;;;;;;;8.69;44.17;99274.66;5096093;28;20064;-67
2024/02/07 00:55:40;;;;;;;20.35;9.48;;;;;;;8.62;43.89;99283.50;5097534;28;20039;-67
2024/02/07 00:58:06;;;;;;;18.52;9.75;;;;;;;8.69;44.09;99280.25;5092762;28;20055;-67
2024/02/07 01:00:32;;;;;;;21.88;10.43;;;;;;;8.80;44.08;99281.53;5094331;28;20363;-67
2024/02/07 01:03:00;;;;;;;39.45;18.58;;;;;;;8.61;44.13;99272.69;5112331;28;20103;-67
2024/02/07 01:05:26;;;;;;;62.75;23.58;;;;;;;8.77;43.56;99276.63;5112419;28;20062;-67
2024/02/07 01:07:51;;;;;;;52.60;22.25;;;;;;;8.89;43.14;99281.56;5094090;28;20058;-67
2024/02/07 01:10:17;;;;;;;69.90;25.60;;;;;;;8.99;42.37;99283.19;5094220;28;20027;-67
2024/02/07 01:12:42;;;;;;;53.53;22.20;;;;;;;8.78;43.42;99281.03;5092483;28;20078;-67
2024/02/07 01:15:08;;;;;;;56.05;24.50;;;;;;;8.51;44.06;99273.81;5111504;28;20055;-67
2024/02/07 01:17:34;;;;;;;44.33;20.85;;;;;;;8.14;45.00;99268.47;5101872;28;20040;-67
2024/02/07 01:19:59;;;;;;;56.55;20.63;;;;;;;8.61;45.55;99267.09;5087113;28;20567;-67
2024/02/07 01:22:25;;;;;;;39.03;16.60;;;;;;;8.39;45.49;99278.03;5105540;28;20032;-68
2024/02/07 01:24:51;;;;;;;28.75;12.40;;;;;;;8.18;46.39;99277.00;5112704;28;20027;-68
2024/02/07 01:27:16;;;;;;;24.75;11.23;;;;;;;8.03;46.59;99276.31;5093533;28;20039;-68
2024/02/07 01:29:42;;;;;;;17.80;9.82;;;;;;;8.14;47.04;99279.59;5094447;28;20085;-69
2024/02/07 01:32:07;;;;;;;18.33;9.25;;;;;;;7.45;48.27;99285.38;5093227;28;20035;-69
2024/02/07 01:34:33;;;;;;;16.02;8.43;;;;;;;7.45;48.69;99288.16;5091733;28;20470;-69
2024/02/07 01:36:58;;;;;;;14.32;6.63;;;;;;;7.45;48.05;99281.78;5091894;28;20137;-69
2024/02/07 01:39:24;;;;;;;13.85;6.72;;;;;;;7.00;49.64;99280.66;5093164;28;20023;-68
2024/02/07 01:41:58;;;;;;;10.07;6.55;;;;;;;7.39;50.10;99269.97;5112243;28;20016;-68
2024/02/07 01:44:29;;;;;;;16.40;7.32;;;;;;;7.47;48.73;99276.72;5093385;28;20083;-68
2024/02/07 01:47:13;;;;;;;12.38;6.88;;;;;;;7.44;48.60;99267.03;5092563;28;20093;-68
2024/02/07 01:49:50;;;;;;;15.23;6.65;;;;;;;7.36;48.73;99267.00;5109215;28;20483;-68
2024/02/07 01:52:19;;;;;;;13.93;8.13;;;;;;;7.06;49.32;99270.22;5092737;28;20028;-68
2024/02/07 01:54:45;;;;;;;21.85;9.85;;;;;;;6.98;50.03;99254.28;5090527;28;20101;-69
2024/02/07 01:57:13;;;;;;;15.13;8.60;;;;;;;7.28;49.55;99255.47;5088139;28;20084;-69
2024/02/07 01:59:40;;;;;;;12.57;7.18;;;;;;;7.37;48.45;99255.56;5110063;28;20016;-68
2024/02/07 02:02:06;;;;;;;13.32;6.63;;;;;;;7.12;48.89;99248.69;5091220;28;20015;-69
2024/02/07 02:04:33;;;;;;;9.98;6.53;;;;;;;7.10;49.27;99246.19;5111138;28;20027;-69
2024/02/07 02:06:58;;;;;;;17.02;7.93;;;;;;;7.14;49.41;99240.84;5104070;28;20063;-69
2024/02/07 02:09:24;;;;;;;18.15;8.15;;;;;;;7.12;49.36;99243.94;5110688;28;20066;-68
2024/02/07 02:11:50;;;;;;;17.80;8.55;;;;;;;7.10;49.68;99248.19;5091750;28;20024;-68
2024/02/07 02:14:17;;;;;;;15.40;6.90;;;;;;;7.14;49.33;99247.22;5092021;28;20514;-68
2024/02/07 02:16:43;;;;;;;11.80;6.75;;;;;;;7.26;48.64;99245.81;5092372;28;20015;-68
2024/02/07 02:19:09;;;;;;;13.23;7.03;;;;;;;7.33;47.90;99254.53;5110393;28;20476;-71
2024/02/07 02:21:51;;;;;;;15.90;6.72;;;;;;;7.36;48.10;99259.47;5092027;28;20039;-70
2024/02/07 02:24:58;;;;;;;11.80;6.68;;;;;;;7.71;48.15;99267.97;5085987;28;20024;-71
2024/02/07 02:27:42;;;;;;;9.85;6.63;;;;;;;7.87;49.79;99264.78;5091153;28;20027;-71
2024/02/07 02:30:19;;;;;;;12.48;6.78;;;;;;;8.05;49.73;99262.03;5090791;28;20031;-68
2024/02/07 02:32:48;;;;;;;14.52;6.97;;;;;;;8.06;49.55;99264.50;5111266;28;20416;-71
2024/02/07 02:35:19;;;;;;;16.83;8.13;;;;;;;8.03;49.08;99269.91;5110500;28;20415;-71
2024/02/07 02:37:46;;;;;;;12.70;6.70;;;;;;;7.90;47.70;99272.47;5091495;28;20038;-70
2024/02/07 02:40:11;;;;;;;16.85;7.40;;;;;;;8.04;47.71;99265.97;5107911;28;20118;-71
2024/02/07 02:42:37;;;;;;;15.98;6.75;;;;;;;7.91;47.68;99259.41;5103947;28;20115;-71
2024/02/07 02:45:03;;;;;;;15.85;6.43;;;;;;;7.55;48.50;99258.41;5090917;28;20027;-71
2024/02/07 02:47:29;;;;;;;14.20;7.60;;;;;;;7.71;48.25;99261.59;5110810;28;20032;-71
2024/02/07 02:49:55;;;;;;;27.10;11.00;;;;;;;7.69;47.62;99253.56;5091293;28;20031;-71
2024/02/07 02:52:22;;;;;;;73.20;31.70;;;;;;;7.70;46.71;99252.41;5110170;28;20039;-71
2024/02/07 02:54:49;;;;;;;93.25;38.40;;;;;;;7.89;46.40;99243.00;5110231;28;20031;-71
2024/02/07 02:57:17;;;;;;;73.20;28.65;;;;;;;7.97;46.14;99244.16;5107759;28;20052;-71
2024/02/07 02:59:43;;;;;;;41.40;18.25;;;;;;;7.98;46.00;99252.22;5094448;28;20036;-71
2024/02/07 03:02:09;;;;;;;18.88;11.27;;;;;;;8.11;45.80;99249.63;5110301;28;20019;-71
2024/02/07 03:04:41;;;;;;;12.73;7.38;;;;;;;8.14;46.03;99238.66;5110401;28;20035;-71
2024/02/07 03:07:36;;;;;;;14.43;6.40;;;;;;;8.19;45.74;99246.00;5090413;28;20114;-71
2024/02/07 03:10:02;;;;;;;7.03;4.90;;;;;;;8.22;45.34;99239.81;5108160;28;20035;-71
2024/02/07 03:12:28;;;;;;;8.18;5.03;;;;;;;8.27;45.46;99236.84;5110635;28;20441;-71
2024/02/07 03:14:53;;;;;;;6.40;4.40;;;;;;;8.29;45.09;99237.34;5108228;28;20123;-71
2024/02/07 03:17:19;;;;;;;5.75;3.92;;;;;;;8.25;44.87;99233.59;5108558;28;20503;-71
2024/02/07 03:19:46;;;;;;;6.25;3.53;;;;;;;8.35;44.96;99234.41;5090468;28;20518;-71
2024/02/07 03:22:14;;;;;;;9.18;4.97;;;;;;;8.33;44.63;99225.56;5108100;28;20111;-71
2024/02/07 03:24:41;;;;;;;7.90;4.78;;;;;;;8.39;44.74;99224.25;5108782;28;20027;-71
2024/02/07 03:27:08;;;;;;;10.30;5.43;;;;;;;8.46;45.27;99232.13;5081552;28;20043;-71
2024/02/07 03:29:33;;;;;;;18.38;6.95;;;;;;;8.47;44.38;99230.97;5092207;28;20027;-71
2024/02/07 03:31:59;;;;;;;70.28;28.48;;;;;;;8.49;44.50;99237.03;5107970;28;20104;-71
2024/02/07 03:34:24;;;;;;;94.93;41.30;;;;;;;8.58;44.12;99229.53;5110357;28;20038;-71
2024/02/07 03:36:50;;;;;;;116.18;42.17;;;;;;;8.63;44.09;99232.19;5110272;28;20484;-71
2024/02/07 03:39:15;;;;;;;97.72;39.10;;;;;;;8.77;44.11;99237.56;5110239;28;20027;-71
2024/02/07 03:41:41;;;;;;;77.00;32.95;;;;;;;8.80;43.89;99238.88;5108768;28;20039;-70
2024/02/07 03:44:12;;;;;;;74.50;28.23;;;;;;;8.81;44.15;99238.56;5109048;28;20381;-70
2024/02/07 03:46:40;;;;;;;63.13;24.30;;;;;;;8.88;43.99;99232.50;5105525;28;20446;-71
2024/02/07 03:49:06;;;;;;;44.30;19.58;;;;;;;8.93;44.56;99237.91;5096421;28;20055;-71
2024/02/07 03:51:34;;;;;;;35.70;16.77;;;;;;;8.92;44.29;99244.63;5090302;28;20485;-71
2024/02/07 03:53:59;;;;;;;40.72;14.68;;;;;;;8.90;44.21;99244.13;5109210;28;20027;-71
2024/02/07 03:56:25;;;;;;;22.30;10.20;;;;;;;8.87;44.16;99243.97;5107764;28;20032;-71
2024/02/07 03:58:50;;;;;;;28.45;12.20;;;;;;;8.71;45.73;99239.72;5093612;28;20039;-71
2024/02/07 04:01:18;;;;;;;31.90;15.02;;;;;;;8.79;45.35;99235.28;5092032;28;20076;-70
2024/02/07 04:03:46;;;;;;;31.50;14.95;;;;;;;8.84;45.44;99231.50;5111231;28;20510;-71
2024/02/07 04:06:13;;;;;;;32.15;16.92;;;;;;;8.69;46.02;99232.84;5108843;28;20024;-71
2024/02/07 04:08:38;;;;;;;48.88;28.50;;;;;;;8.46;47.42;99232.13;5080445;28;20024;-71
2024/02/07 04:11:07;;;;;;;52.70;23.42;;;;;;;8.54;46.96;99223.00;5094171;28;20030;-70
2024/02/07 05:16:15;;;;;;;38.30;14.82;;;;;;;7.85;49.53;99203.81;5103423;28;20030;-70
2024/02/07 05:18:40;;;;;;;117.82;47.60;;;;;;;7.69;49.88;99202.63;5093611;28;20079;-71
2024/02/07 05:21:11;;;;;;;178.57;76.15;;;;;;;7.49;51.14;99215.97;5111738;28;20020;-71
2024/02/07 05:23:37;;;;;;;162.68;65.15;;;;;;;6.96;52.59;99215.69;5108016;28;20373;-71
2024/02/07 05:26:04;;;;;;;96.25;40.55;;;;;;;7.00;52.66;99202.78;5112667;28;20026;-71
2024/02/07 05:28:30;;;;;;;64.90;30.35;;;;;;;6.96;52.79;99217.66;5111843;28;20027;-71
2024/02/07 05:30:55;;;;;;;59.17;26.05;;;;;;;6.60;53.51;99216.59;5093448;28;20023;-71
2024/02/07 05:33:21;;;;;;;42.92;18.55;;;;;;;6.62;52.66;99219.03;5109753;28;20032;-71
2024/02/07 05:35:46;;;;;;;50.33;22.23;;;;;;;6.74;52.87;99216.50;5111328;28;20034;-71
2024/02/07 05:38:12;;;;;;;43.80;20.48;;;;;;;6.77;52.58;99224.25;5100727;28;20123;-71
2024/02/07 05:40:37;;;;;;;61.60;22.25;;;;;;;6.59;53.79;99237.19;5073765;28;20016;-70
2024/02/07 05:43:03;;;;;;;58.47;24.92;;;;;;;6.66;53.75;99231.19;5099051;28;20062;-71
2024/02/07 05:45:29;;;;;;;42.70;20.13;;;;;;;6.93;52.93;99235.78;5093857;28;20423;-71
2024/02/07 05:47:55;;;;;;;35.22;19.00;;;;;;;7.07;52.29;99234.91;5092006;28;20031;-71
2024/02/07 05:50:21;;;;;;;32.00;13.02;;;;;;;7.16;51.70;99238.53;5093651;28;20027;-71
2024/02/07 05:52:46;;;;;;;36.40;13.43;;;;;;;7.33;51.72;99243.41;5108134;28;20042;-71
2024/02/07 05:55:12;;;;;;;87.25;35.83;;;;;;;7.45;50.91;99234.47;5111080;28;20024;-71
2024/02/07 05:57:37;;;;;;;126.05;47.22;;;;;;;7.57;50.56;99242.22;5112157;28;20494;-71
2024/02/07 06:00:05;;;;;;;133.90;53.15;;;;;;;7.59;49.84;99242.69;5108932;28;20027;-71
2024/02/07 06:02:31;;;;;;;207.70;83.35;;;;;;;7.65;49.50;99252.56;5107009;28;20029;-69
2024/02/07 06:05:01;;;;;;;190.95;76.43;;;;;;;7.82;49.44;99245.41;5090982;28;20408;-71
2024/02/07 06:07:27;;;;;;;144.68;57.42;;;;;;;8.05;48.53;99243.38;5110765;28;20080;-69
2024/02/07 06:09:52;;;;;;;134.00;51.47;;;;;;;8.26;48.24;99246.38;5092944;28;20035;-69
2024/02/07 06:12:20;;;;;;;120.25;68.25;;;;;;;8.36;48.50;99247.22;5110983;28;20106;-71
2024/02/07 06:14:45;;;;;;;73.82;38.58;;;;;;;8.41;48.01;99241.47;5091338;28;20031;-71
2024/02/07 06:17:11;;;;;;;91.65;38.30;;;;;;;8.45;48.10;99252.78;5108298;28;20462;-71
2024/02/07 06:19:36;;;;;;;130.07;48.88;;;;;;;8.39;48.82;99250.16;5111285;28;20026;-71
2024/02/07 06:22:02;;;;;;;97.75;43.55;;;;;;;8.59;49.05;99249.88;5091955;28;20027;-70
2024/02/07 06:24:27;;;;;;;132.05;51.63;;;;;;;8.43;50.05;99255.88;5103893;28;20032;-70
2024/02/07 06:26:53;;;;;;;137.55;50.53;;;;;;;8.53;50.17;99261.19;5091407;28;20027;-69
2024/02/07 06:29:19;;;;;;;115.85;46.35;;;;;;;8.31;50.34;99256.53;5075730;28;20026;-70
2024/02/07 06:31:44;;;;;;;113.85;48.10;;;;;;;8.15;50.90;99257.00;5107859;28;20114;-69
2024/02/07 06:34:10;;;;;;;112.68;42.35;;;;;;;8.14;51.64;99254.53;5108922;28;20024;-70
2024/02/07 06:36:35;;;;;;;110.95;43.45;;;;;;;8.19;51.96;99256.34;5097855;28;20028;-69
2024/02/07 06:39:01;;;;;;;110.03;42.78;;;;;;;8.35;51.93;99253.94;5088417;28;20016;-69
2024/02/07 06:41:26;;;;;;;107.30;39.88;;;;;;;8.53;51.13;99254.81;5101996;28;20499;-69
2024/02/07 06:43:52;;;;;;;110.22;39.15;;;;;;;8.62;51.57;99252.81;5084191;28;20092;-70
2024/02/07 06:46:17;;;;;;;90.40;40.20;;;;;;;8.84;50.05;99245.44;5105522;28;20026;-70
2024/02/07 06:48:43;;;;;;;70.38;28.85;;;;;;;9.05;48.30;99250.34;5102837;28;20169;-69
2024/02/07 06:51:08;;;;;;;55.47;26.58;;;;;;;9.19;49.15;99253.78;5098186;28;20024;-69
2024/02/07 06:53:34;;;;;;;37.63;15.35;;;;;;;9.27;47.71;99254.91;5096447;28;20024;-70
2024/02/07 06:55:59;;;;;;;41.17;12.65;;;;;;;9.41;47.35;99252.75;5099963;28;20288;-70
2024/02/07 06:58:25;;;;;;;37.92;16.25;;;;;;;9.55;47.51;99257.31;5102915;28;20028;-70
2024/02/07 07:00:50;;;;;;;92.43;46.97;;;;;;;9.63;45.95;99239.69;5108197;28;20028;-71
2024/02/07 07:03:16;;;;;;;68.72;34.90;;;;;;;9.76;45.75;99245.38;5106588;28;20127;-70
2024/02/07 07:05:41;;;;;;;44.58;20.60;;;;;;;9.81;46.03;99248.81;5089055;28;20089;-71
2024/02/07 07:08:07;;;;;;;54.95;22.50;;;;;;;9.93;45.46;99247.28;5108175;28;20130;-72
2024/02/07 07:10:32;;;;;;;88.07;36.70;;;;;;;10.11;44.06;99250.81;5106689;28;20068;-68
2024/02/07 07:12:58;;;;;;;121.90;53.25;;;;;;;10.40;43.69;99243.59;5103798;28;20102;-73
2024/02/07 07:15:23;;;;;;;214.57;87.22;;;;;;;10.65;43.16;99243.75;5077362;28;20035;-72
2024/02/07 07:17:49;;;;;;;206.52;82.88;;;;;;;10.86;42.43;99245.72;5072785;28;20047;-69
2024/02/07 07:20:14;;;;;;;144.40;63.40;;;;;;;11.05;41.99;99234.84;5095844;28;20096;-69
2024/02/07 07:22:39;;;;;;;101.35;43.72;;;;;;;11.08;41.78;99245.34;5087596;28;20571;-69
2024/02/07 07:25:06;;;;;;;127.40;54.75;;;;;;;11.13;41.94;99241.50;5068777;28;20032;-70
2024/02/07 07:27:31;;;;;;;153.32;67.45;;;;;;;11.16;42.62;99242.81;5081364;28;20042;-71
2024/02/07 07:29:57;;;;;;;180.23;68.63;;;;;;;11.27;42.42;99237.59;5106408;28;20043;-70
2024/02/07 07:32:22;;;;;;;85.75;37.92;;;;;;;11.40;42.62;99233.66;5075135;28;20084;-68
2024/02/07 07:34:48;;;;;;;37.45;17.13;;;;;;;11.55;42.18;99229.38;5093240;28;20420;-67
2024/02/07 07:37:13;;;;;;;14.20;6.95;;;;;;;11.70;41.98;99230.69;5086699;28;20035;-67
2024/02/07 07:39:41;;;;;;;21.90;8.85;;;;;;;11.78;42.42;99220.53;5103297;28;20040;-68
2024/02/07 07:42:07;;;;;;;16.05;7.72;;;;;;;11.80;42.73;99229.41;5068714;28;20024;-69
2024/02/07 07:44:32;;;;;;;14.50;6.97;;;;;;;11.87;42.66;99220.41;5083027;28;20023;-70
2024/02/07 07:46:57;;;;;;;25.13;7.32;;;;;;;11.83;42.95;99213.88;5096721;28;20019;-71
2024/02/07 07:49:23;;;;;;;21.88;7.50;;;;;;;11.86;42.42;99211.19;5080970;28;20027;-70
2024/02/07 07:51:48;;;;;;;13.40;6.82;;;;;;;11.89;41.88;99210.50;5103939;28;20492;-68
2024/02/07 07:54:14;;;;;;;19.73;7.22;;;;;;;11.83;41.62;99206.31;5104671;28;20389;-68
2024/02/07 07:56:39;;;;;;;31.00;10.20;;;;;;;11.79;42.89;99205.34;5093783;28;20048;-70
2024/02/07 07:59:05;;;;;;;36.13;12.13;;;;;;;11.87;41.77;99204.44;5091432;28;20035;-67
2024/02/07 08:01:30;;;;;;;39.28;14.85;;;;;;;11.89;42.36;99202.09;5098354;28;20127;-69
2024/02/07 08:03:56;;;;;;;26.05;11.00;;;;;;;11.90;41.54;99200.91;5080578;28;20027;-68
2024/02/07 08:06:22;;;;;;;33.08;11.85;;;;;;;11.88;41.95;99196.81;5101746;28;20031;-70
2024/02/07 08:08:48;;;;;;;22.95;9.40;;;;;;;11.87;41.73;99196.03;5105103;28;20031;-68
2024/02/07 08:11:14;;;;;;;16.23;7.82;;;;;;;11.80;41.52;99192.97;5083595;28;20020;-69
2024/02/07 08:13:40;;;;;;;11.32;6.18;;;;;;;11.78;42.01;99186.91;5088495;28;20155;-69
2024/02/07 08:16:05;;;;;;;16.60;8.32;;;;;;;11.87;41.78;99189.59;5103736;28;20460;-70
2024/02/07 08:18:31;;;;;;;12.05;7.13;;;;;;;11.89;41.40;99190.88;5101501;28;20032;-69
2024/02/07 08:20:57;;;;;;;53.08;11.75;;;;;;;12.03;41.13;99186.94;5106563;28;20024;-67
2024/02/07 08:23:23;;;;;;;15.93;7.53;;;;;;;12.09;40.54;99185.53;5106513;28;20039;-68
2024/02/07 08:25:48;;;;;;;18.95;8.25;;;;;;;12.14;40.61;99181.69;5105504;28;20102;-67
2024/02/07 08:28:14;;;;;;;18.45;8.73;;;;;;;12.14;41.35;99182.47;5106974;28;20035;-67
2024/02/07 08:30:40;;;;;;;25.88;10.23;;;;;;;12.25;41.16;99180.03;5106623;28;20027;-66
2024/02/07 08:33:06;;;;;;;18.58;9.27;;;;;;;12.30;41.01;99182.56;5106585;28;20035;-67
2024/02/07 08:35:31;;;;;;;18.67;9.18;;;;;;;12.34;41.84;99182.69;5106103;28;20108;-67
2024/02/07 08:37:58;;;;;;;18.10;8.63;;;;;;;12.41;41.73;99185.69;5106742;28;20492;-65
2024/02/07 08:40:31;;;;;;;13.57;7.25;;;;;;;12.41;41.70;99180.06;5106505;28;20027;-66
2024/02/07 08:42:57;;;;;;;15.15;7.93;;;;;;;12.36;41.70;99183.13;5085609;28;20031;-66
2024/02/07 08:45:23;;;;;;;19.77;7.47;;;;;;;12.49;40.62;99178.31;5091937;28;20039;-68
2024/02/07 08:47:48;;;;;;;15.90;8.43;;;;;;;12.53;40.63;99170.00;5110858;28;20415;-66
2024/02/07 08:50:14;;;;;;;29.67;10.43;;;;;;;12.67;41.20;99173.25;5108688;28;20524;-68
2024/02/07 08:52:41;;;;;;;16.70;9.13;;;;;;;12.82;41.67;99170.84;5108421;28;20921;-68
2024/02/07 08:55:08;;;;;;;16.88;7.40;;;;;;;12.80;40.51;99168.38;5107577;28;20471;-68
2024/02/07 08:57:34;;;;;;;19.55;9.82;;;;;;;12.93;40.49;99169.16;5091360;28;20496;-67
2024/02/07 09:00:00;;;;;;;13.30;8.13;;;;;;;12.75;40.46;99166.63;5107936;28;20047;-69
2024/02/07 09:02:25;;;;;;;19.38;9.60;;;;;;;12.92;40.75;99170.31;5106609;28;20023;-68
2024/02/07 09:04:51;;;;;;;22.08;11.65;;;;;;;13.15;40.10;99166.91;5110788;28;20519;-68
2024/02/07 09:07:16;;;;;;;21.23;10.50;;;;;;;13.08;40.55;99167.53;5089314;28;20572;-69
2024/02/07 09:09:42;;;;;;;15.13;8.43;;;;;;;12.98;41.25;99174.50;5093914;28;20462;-68
2024/02/07 09:12:07;;;;;;;20.00;9.15;;;;;;;12.98;41.35;99173.69;5110412;28;20035;-68
2024/02/07 09:14:33;;;;;;;17.73;8.88;;;;;;;13.14;41.35;99176.50;5110705;28;20411;-69
2024/02/07 09:16:58;;;;;;;26.40;11.38;;;;;;;13.24;41.51;99173.19;5108611;28;20027;-69
2024/02/07 09:19:24;;;;;;;20.15;10.15;;;;;;;13.21;40.82;99171.09;5110984;28;20030;-69
2024/02/07 09:21:50;;;;;;;18.35;10.88;;;;;;;13.33;40.40;99162.59;5110261;28;20038;-69
2024/02/07 09:24:15;;;;;;;21.00;10.95;;;;;;;13.47;40.82;99165.00;5093746;28;20027;-69
2024/02/07 09:26:41;;;;;;;23.65;11.57;;;;;;;13.47;40.94;99167.81;5092927;28;20085;-69
2024/02/07 09:29:06;;;;;;;32.28;16.23;;;;;;;13.51;41.17;99167.88;5090325;28;20034;-68
2024/02/07 09:31:31;;;;;;;37.25;14.88;;;;;;;13.71;40.67;99167.97;5084395;28;20032;-70
2024/02/07 09:33:57;;;;;;;36.35;16.85;;;;;;;13.73;40.45;99158.00;5103323;28;20027;-69
2024/02/07 09:36:22;;;;;;;32.83;15.43;;;;;;;13.93;39.78;99146.81;5109312;28;20059;-68
2024/02/07 09:38:48;;;;;;;36.20;16.17;;;;;;;14.07;40.22;99149.13;5089094;28;20035;-69
2024/02/07 09:41:17;;;;;;;22.58;12.15;;;;;;;14.11;38.83;99146.41;5082045;28;20088;-68
2024/02/07 09:43:45;;;;;;;25.70;10.57;;;;;;;14.29;38.95;99132.75;5099038;28;20074;-68
2024/02/07 09:46:14;;;;;;;18.65;10.38;;;;;;;14.55;39.37;99139.72;5111548;28;20094;-68
2024/02/07 09:48:40;;;;;;;23.38;11.05;;;;;;;14.58;39.52;99138.97;5108899;28;20087;-70
2024/02/07 09:51:14;;;;;;;14.02;8.52;;;;;;;14.54;39.15;99132.47;5103525;28;20566;-71
2024/02/07 09:53:41;;;;;;;18.55;8.68;;;;;;;14.57;39.99;99137.34;5080554;28;20039;-69
2024/02/07 09:56:07;;;;;;;26.13;9.52;;;;;;;14.30;39.87;99126.75;5076258;28;20100;-67
2024/02/07 09:58:33;;;;;;;17.30;9.00;;;;;;;14.44;39.76;99126.22;5107246;28;20062;-68
2024/02/07 10:00:58;;;;;;;17.52;9.50;;;;;;;14.43;39.87;99116.16;5106419;28;20023;-67
2024/02/07 10:03:25;;;;;;;18.98;8.65;;;;;;;14.60;40.54;99114.91;5090309;28;20042;-68
2024/02/07 10:05:58;;;;;;;16.85;8.63;;;;;;;14.69;40.06;99106.22;5106159;28;20034;-67
2024/02/07 10:08:24;;;;;;;17.33;9.43;;;;;;;14.66;40.00;99092.91;5107636;28;20175;-67
2024/02/07 10:10:50;;;;;;;15.60;7.82;;;;;;;14.83;40.47;99090.81;5103391;28;24372;-66
2024/02/07 10:13:17;;;;;;;17.50;7.80;;;;;;;14.91;39.79;99074.91;5107353;28;20028;-67
2024/02/07 10:15:43;;;;;;;13.98;8.50;;;;;;;15.03;39.69;99071.91;5107826;28;20035;-67
2024/02/07 10:18:09;;;;;;;23.30;11.73;;;;;;;15.02;39.76;99073.91;5087286;28;20089;-69
2024/02/07 10:20:35;;;;;;;12.20;7.63;;;;;;;15.23;39.14;99072.66;5088044;28;20031;-68
2024/02/07 10:23:00;;;;;;;11.90;7.18;;;;;;;15.22;39.08;99062.56;5103289;28;20031;-67
2024/02/07 10:25:26;;;;;;;16.20;7.97;;;;;;;15.22;39.22;99064.56;5088493;28;20031;-67
2024/02/07 10:28:04;;;;;;;19.70;8.48;;;;;;;15.41;38.91;99052.41;5108106;28;20100;-67
2024/02/07 10:30:30;;;;;;;11.63;6.10;;;;;;;15.42;38.56;99045.56;5084882;28;20034;-68
2024/02/07 10:32:55;;;;;;;14.68;8.65;;;;;;;15.55;37.61;99038.53;5107200;28;20028;-67
2024/02/07 10:35:21;;;;;;;22.77;10.20;;;;;;;15.66;37.45;99037.88;5108606;28;20088;-67
2024/02/07 10:37:47;;;;;;;11.05;6.70;;;;;;;15.56;36.69;99028.88;5107822;28;20460;-67
2024/02/07 10:40:13;;;;;;;15.88;7.13;;;;;;;15.53;37.36;99011.94;5106344;28;20063;-69
2024/02/07 10:42:40;;;;;;;105.90;60.70;;;;;;;15.69;36.33;99018.19;5069404;28;20024;-68
2024/02/07 10:45:07;;;;;;;23.08;13.98;;;;;;;15.69;36.38;99017.41;5087575;28;20127;-68
2024/02/07 10:47:34;;;;;;;14.88;7.80;;;;;;;15.72;36.12;99011.78;5073707;28;20044;-69
2024/02/07 10:50:05;;;;;;;10.32;6.63;;;;;;;15.72;36.29;99003.34;5084362;28;20403;-69
2024/02/07 10:52:33;;;;;;;11.45;6.43;;;;;;;15.72;36.06;99000.50;5107264;28;20388;-68
2024/02/07 10:54:58;;;;;;;12.30;6.22;;;;;;;15.70;36.34;98993.66;5097783;28;20034;-69
2024/02/07 10:57:31;;;;;;;17.33;6.47;;;;;;;15.89;36.29;98986.22;5099399;28;20032;-69
2024/02/07 11:00:02;;;;;;;10.55;7.30;;;;;;;15.92;36.25;98988.31;5103513;28;20038;-70
2024/02/07 11:02:30;;;;;;;9.90;7.70;;;;;;;16.06;35.77;98970.75;5086134;28;20465;-70
2024/02/07 11:04:55;;;;;;;11.85;6.63;;;;;;;16.02;35.99;98959.44;5106403;28;20081;-69
2024/02/07 11:07:21;;;;;;;10.02;6.00;;;;;;;15.83;36.20;98957.56;5085767;28;20039;-69
2024/02/07 11:09:47;;;;;;;20.73;8.30;;;;;;;16.00;36.37;98961.81;5107025;28;20023;-68
2024/02/07 11:12:14;;;;;;;13.07;7.18;;;;;;;15.93;35.76;98951.28;5086504;28;20051;-69
2024/02/07 11:14:44;;;;;;;9.07;5.93;;;;;;;15.87;36.51;98944.34;5104692;28;20032;-69
2024/02/07 11:17:10;;;;;;;;;;;;;;;16.02;36.58;98953.78;5085906;28;20027;-69
2024/02/07 11:19:37;;;;;;;14.57;6.75;;;;;;;16.11;36.43;98953.50;5083142;28;19930;-69
2024/02/07 11:22:06;;;;;;;11.80;6.90;;;;;;;16.14;35.74;98947.09;5107090;28;20058;-69
2024/02/07 11:24:32;;;;;;;10.88;5.63;;;;;;;16.24;35.46;98931.47;5104226;28;20051;-69
2024/02/07 11:26:58;;;;;;;10.13;6.90;;;;;;;16.29;35.95;98939.59;5101884;28;20027;-70
2024/02/07 11:29:23;;;;;;;14.50;7.35;;;;;;;16.34;35.54;98927.13;5085098;28;20461;-69
2024/02/07 11:31:53;;;;;;;14.38;7.90;;;;;;;16.09;34.99;98931.31;5102389;28;20031;-69
2024/02/07 11:34:19;;;;;;;10.40;6.63;;;;;;;16.34;35.04;98925.13;5105911;28;20567;-69
2024/02/07 11:36:55;;;;;;;13.18;6.97;;;;;;;16.41;35.00;98924.38;5100565;28;20140;-70
2024/02/07 11:39:21;;;;;;;10.75;6.57;;;;;;;16.46;34.59;98923.22;5089030;28;20107;-68
2024/02/07 11:41:47;;;;;;;15.00;7.15;;;;;;;16.54;33.88;98922.09;5105777;28;20027;-69
2024/02/07 11:44:17;;;;;;;15.98;6.40;;;;;;;16.80;34.09;98918.28;5087733;28;20039;-70
2024/02/07 11:46:48;;;;;;;15.97;7.50;;;;;;;16.79;34.22;98910.22;5106825;28;20927;-70
2024/02/07 11:49:17;;;;;;;13.20;6.68;;;;;;;17.17;33.99;98910.91;5104649;28;20031;-70
2024/02/07 11:51:42;;;;;;;10.73;5.93;;;;;;;17.21;32.52;98897.59;5084756;28;20118;-69
2024/02/07 11:54:08;;;;;;;8.45;5.95;;;;;;;17.30;33.40;98893.63;5103288;28;20419;-70
2024/02/07 11:56:33;;;;;;;18.20;8.52;;;;;;;17.26;33.67;98896.44;5089295;28;20044;-70
2024/02/07 11:59:00;;;;;;;20.98;8.95;;;;;;;17.38;33.31;98889.66;5087156;28;20492;-70
2024/02/07 12:01:26;;;;;;;12.93;7.63;;;;;;;17.49;32.83;98884.84;5085847;28;20020;-69
2024/02/07 12:03:56;;;;;;;15.35;6.53;;;;;;;17.74;32.59;98880.50;5085323;28;20415;-68
2024/02/07 12:06:23;;;;;;;24.40;14.57;;;;;;;17.71;32.22;98879.28;5105582;28;20028;-68
2024/02/07 12:08:49;;;;;;;13.90;6.18;;;;;;;17.80;32.83;98876.09;5107151;28;20059;-68
2024/02/07 12:11:14;;;;;;;9.27;6.13;;;;;;;17.74;32.39;98875.69;5086181;28;20063;-68
2024/02/07 12:13:40;;;;;;;18.40;6.32;;;;;;;17.88;32.42;98865.63;5100490;28;20034;-68
2024/02/07 12:16:08;;;;;;;10.25;5.18;;;;;;;17.86;31.98;98863.16;5103105;28;20043;-68
2024/02/07 12:18:34;;;;;;;10.57;5.97;;;;;;;17.76;32.05;98866.78;5086540;28;20499;-67
2024/02/07 12:21:04;;;;;;;13.57;6.05;;;;;;;17.85;32.05;98867.22;5088132;28;20035;-69
2024/02/07 12:23:30;;;;;;;14.45;6.82;;;;;;;17.59;32.53;98857.00;5089032;28;20028;-68
2024/02/07 12:25:56;;;;;;;10.23;7.15;;;;;;;17.46;32.90;98867.88;5102833;28;20046;-67
2024/02/07 12:28:22;;;;;;;12.93;7.18;;;;;;;17.51;32.84;98853.34;5092146;28;20131;-67